Time;durP1;ratioP1;P1;durP2;ratioP2;P2;SDS_P1;SDS_P2;PMS_P1;PMS_P2;Temp;Humidity;BMP_temperature;BMP_pressure;BME280_temperature;BME280_humidity;BME280_pressure;Samples;Min_cycle;Max_cycle;Signal;HPM_P1;HPM_P2
2021/07/09 00:01:32;;;;;;;4.40;3.90;;;;;;;18.31;90.96;101306.88;5055016;28;20102;-90
2021/07/09 00:04:19;;;;;;;5.90;4.45;;;;;;;18.31;91.04;101296.28;5041346;28;20064;-91
2021/07/09 00:07:06;;;;;;;7.13;4.60;;;;;;;18.27;91.26;101299.94;5065887;28;20044;-95
2021/07/09 00:09:53;;;;;;;6.10;5.50;;;;;;;18.21;91.85;101297.47;5061983;28;20044;-87
2021/07/09 00:12:41;;;;;;;5.78;5.28;;;;;;;18.18;92.34;101294.94;5045583;28;20055;-89
2021/07/09 00:15:38;;;;;;;8.95;5.57;;;;;;;18.12;92.69;101284.50;5044814;28;20403;-91
2021/07/09 00:19:05;;;;;;;6.43;4.28;;;;;;;18.03;92.81;101290.97;5046094;28;20091;-88
2021/07/09 00:21:57;;;;;;;6.55;4.18;;;;;;;17.94;92.71;101286.81;5042029;28;20518;-90
2021/07/09 00:24:44;;;;;;;4.78;4.07;;;;;;;17.86;92.76;101289.66;5059450;28;20139;-91
2021/07/09 00:27:35;;;;;;;5.65;4.47;;;;;;;17.78;92.83;101289.03;5057137;28;20049;-91
2021/07/09 00:30:25;;;;;;;5.53;4.35;;;;;;;17.73;93.08;101292.69;5085244;28;20059;-94
2021/07/09 00:33:13;;;;;;;5.10;3.53;;;;;;;17.66;93.55;101295.53;5066678;28;20063;-95
2021/07/09 00:36:12;;;;;;;4.93;3.45;;;;;;;17.63;93.71;101292.09;5079132;28;20061;-92
2021/07/09 00:39:00;;;;;;;6.05;3.83;;;;;;;17.61;93.74;101291.25;5069589;28;20108;-94
2021/07/09 00:41:47;;;;;;;4.07;3.45;;;;;;;17.57;93.66;101282.53;5073632;28;20037;-91
2021/07/09 00:44:36;;;;;;;4.47;3.70;;;;;;;17.52;93.69;101281.78;5067284;28;20049;-92
2021/07/09 00:47:25;;;;;;;6.65;3.97;;;;;;;17.43;93.82;101282.94;5061440;28;20048;-90
2021/07/09 00:50:13;;;;;;;9.45;4.40;;;;;;;17.36;94.41;101268.13;5062592;28;20049;-93
2021/07/09 00:53:00;;;;;;;4.07;3.05;;;;;;;17.30;94.75;101268.28;5064442;28;20040;-90
2021/07/09 00:55:53;;;;;;;6.05;3.15;;;;;;;17.23;95.24;101264.94;5039628;28;20037;-88
2021/07/09 00:58:40;;;;;;;4.75;3.95;;;;;;;17.18;95.01;101254.50;5055569;28;20387;-89
2021/07/09 01:01:26;;;;;;;5.60;3.60;;;;;;;17.13;95.62;101259.03;5051732;28;20068;-88
2021/07/09 01:04:14;;;;;;;8.35;4.05;;;;;;;17.11;95.51;101260.00;5054189;28;20045;-88
2021/07/09 01:07:03;;;;;;;5.13;4.63;;;;;;;17.07;95.60;101261.00;5046247;28;20048;-89
2021/07/09 01:09:49;;;;;;;4.60;3.75;;;;;;;17.03;95.83;101252.25;5060723;28;20052;-90
2021/07/09 01:12:39;;;;;;;3.55;3.25;;;;;;;17.03;95.91;101257.53;5052623;28;20053;-87
2021/07/09 01:15:27;;;;;;;5.43;3.50;;;;;;;17.00;96.04;101263.78;5051527;28;20470;-87
2021/07/09 01:18:14;;;;;;;4.75;4.20;;;;;;;17.00;96.35;101260.25;5052350;28;20041;-90
2021/07/09 01:21:16;;;;;;;4.38;3.85;;;;;;;16.99;96.49;101263.81;5048775;28;20059;-87
2021/07/09 01:24:09;;;;;;;3.80;3.40;;;;;;;16.96;96.64;101264.78;5048063;28;20528;-88
2021/07/09 01:26:56;;;;;;;6.32;3.72;;;;;;;16.96;96.50;101271.81;5054267;28;20048;-91
2021/07/09 01:29:47;;;;;;;8.40;3.72;;;;;;;16.96;96.44;101275.34;5035840;28;20044;-89
2021/07/09 01:32:33;;;;;;;6.80;4.45;;;;;;;16.96;96.26;101275.34;5052613;28;20051;-90
2021/07/09 01:35:37;;;;;;;7.25;4.47;;;;;;;16.93;96.71;101293.94;5051523;28;20048;-91
2021/07/09 01:38:25;;;;;;;8.05;3.90;;;;;;;16.91;96.66;101285.19;5039482;28;20059;-88
2021/07/09 01:41:12;;;;;;;6.03;4.43;;;;;;;16.90;96.83;101275.50;5061669;28;20081;-96
2021/07/09 01:43:59;;;;;;;5.72;3.55;;;;;;;16.86;96.64;101282.59;5070412;28;20060;-91
2021/07/09 01:46:48;;;;;;;5.68;4.10;;;;;;;16.86;97.01;101292.31;5053949;28;20048;-90
2021/07/09 01:50:00;;;;;;;4.20;3.83;;;;;;;16.87;97.49;101294.94;5055583;28;20040;-91
2021/07/09 01:52:47;;;;;;;9.75;4.72;;;;;;;16.89;97.29;101292.25;5055309;28;20112;-87
2021/07/09 01:55:35;;;;;;;7.30;4.07;;;;;;;16.90;97.02;101294.00;5047210;28;20041;-88
2021/07/09 01:58:22;;;;;;;4.40;3.97;;;;;;;16.89;97.19;101292.25;5045073;28;20045;-90
2021/07/09 02:01:09;;;;;;;8.75;3.72;;;;;;;16.91;97.30;101293.13;5047879;28;20037;-91
2021/07/09 02:03:58;;;;;;;4.43;4.00;;;;;;;16.90;97.64;101295.78;5040857;28;20060;-89
2021/07/09 02:06:45;;;;;;;4.75;3.80;;;;;;;16.89;97.32;101296.66;5052739;28;20099;-89
2021/07/09 02:09:32;;;;;;;8.02;4.55;;;;;;;16.86;97.72;101300.25;5059323;28;20036;-94
2021/07/09 02:12:23;;;;;;;8.38;4.93;;;;;;;16.85;97.33;101296.72;5070617;28;20456;-91
2021/07/09 02:15:15;;;;;;;10.57;5.90;;;;;;;16.80;98.21;101298.63;5045386;28;20056;-90
2021/07/09 02:18:04;;;;;;;5.18;4.68;;;;;;;16.77;98.50;101298.69;5052728;28;20044;-87
2021/07/09 02:20:51;;;;;;;6.07;5.30;;;;;;;16.73;98.42;101296.19;5051514;28;20059;-90
2021/07/09 02:23:38;;;;;;;7.35;4.95;;;;;;;16.71;98.84;101293.56;5051147;28;20048;-93
2021/07/09 02:26:28;;;;;;;14.05;5.55;;;;;;;16.69;98.64;101290.09;5054037;28;20505;-88
2021/07/09 02:29:15;;;;;;;7.45;4.65;;;;;;;16.70;99.15;101292.69;5045017;28;20063;-88
2021/07/09 02:32:06;;;;;;;9.25;5.10;;;;;;;16.72;98.77;101291.81;5053879;28;20044;-91
2021/07/09 02:35:02;;;;;;;5.82;5.10;;;;;;;16.73;99.04;101286.47;5042638;28;20048;-88
2021/07/09 02:37:52;;;;;;;11.32;5.82;;;;;;;16.73;99.08;101277.69;5056670;28;20394;-90
2021/07/09 02:40:43;;;;;;;8.52;5.05;;;;;;;16.70;99.28;101281.28;5056985;28;20047;-87
2021/07/09 02:43:30;;;;;;;7.00;5.57;;;;;;;16.66;99.08;101276.94;5062257;28;20299;-93
2021/07/09 02:46:19;;;;;;;10.18;5.38;;;;;;;16.64;100.00;101279.63;5074002;28;20029;-95
2021/07/09 02:49:06;;;;;;;8.90;6.10;;;;;;;16.61;99.88;101274.41;5065334;28;20059;-93
2021/07/09 02:51:54;;;;;;;10.98;6.05;;;;;;;16.60;99.86;101287.69;5062342;28;20033;-93
2021/07/09 02:54:42;;;;;;;8.68;5.90;;;;;;;16.58;100.00;101281.56;5054722;28;20056;-90
2021/07/09 02:57:29;;;;;;;8.75;5.65;;;;;;;16.57;100.00;101282.44;5044159;28;20612;-93
2021/07/09 03:00:19;;;;;;;11.30;6.18;;;;;;;16.56;100.00;101276.31;5047467;28;20059;-90
2021/07/09 03:03:06;;;;;;;6.18;5.47;;;;;;;16.58;100.00;101277.13;5048046;28;20094;-93
2021/07/09 03:05:53;;;;;;;10.45;7.00;;;;;;;16.59;100.00;101272.72;5052755;28;20040;-88
2021/07/09 03:08:40;;;;;;;9.05;5.90;;;;;;;16.61;100.00;101273.53;5060853;28;20381;-86
2021/07/09 03:11:29;;;;;;;14.73;6.82;;;;;;;16.57;100.00;101264.84;5054690;28;20036;-91
2021/07/09 03:14:18;;;;;;;9.50;6.55;;;;;;;16.54;100.00;101252.56;5056128;28;20629;-88
2021/07/09 03:17:11;;;;;;;11.68;7.68;;;;;;;16.53;100.00;101247.28;5058366;28;20044;-94
2021/07/09 03:19:58;;;;;;;12.02;7.85;;;;;;;16.54;100.00;101243.75;5072595;28;20107;-95
2021/07/09 03:22:45;;;;;;;8.52;7.53;;;;;;;16.56;100.00;101244.59;5079525;28;20037;-90
2021/07/09 03:25:32;;;;;;;8.13;6.88;;;;;;;16.61;100.00;101249.75;5062509;28;20049;-91
2021/07/09 03:28:19;;;;;;;6.35;5.47;;;;;;;16.63;100.00;101243.50;5073872;28;20062;-92
2021/07/09 03:31:06;;;;;;;10.73;7.90;;;;;;;16.68;100.00;101236.34;5074763;28;20056;-96
2021/07/09 03:33:54;;;;;;;11.15;8.43;;;;;;;16.76;100.00;101240.59;5079009;28;20059;-91
2021/07/09 03:36:44;;;;;;;9.68;8.35;;;;;;;16.84;100.00;101223.63;5074434;28;20051;-94
2021/07/09 03:39:31;;;;;;;7.55;6.85;;;;;;;16.92;100.00;101222.56;5068277;28;20048;-93
2021/07/09 03:42:18;;;;;;;11.38;9.48;;;;;;;16.99;100.00;101232.09;5069916;28;20060;-93
2021/07/09 03:45:06;;;;;;;9.60;8.60;;;;;;;17.03;100.00;101220.53;5056010;28;20132;-93
2021/07/09 03:47:53;;;;;;;12.55;9.23;;;;;;;17.10;100.00;101218.56;5074936;28;20032;-94
2021/07/09 03:50:42;;;;;;;9.73;8.50;;;;;;;17.13;100.00;101214.06;5077198;28;20089;-96
2021/07/09 03:53:29;;;;;;;10.50;9.43;;;;;;;17.15;99.80;101208.72;5074623;28;20058;-94
2021/07/09 03:56:19;;;;;;;9.77;8.88;;;;;;;17.17;99.58;101209.56;5080681;28;20051;-96
2021/07/09 03:59:07;;;;;;;10.98;8.55;;;;;;;17.20;99.48;101204.19;5066358;28;20050;-88
2021/07/09 04:02:00;;;;;;;9.10;8.10;;;;;;;17.25;99.50;101211.97;5074839;28;20048;-91
2021/07/09 04:04:30;;;;;;;12.30;9.57;;;;;;;17.29;99.39;101208.34;5063791;28;20044;-94
2021/07/09 04:07:05;;;;;;;10.98;9.73;;;;;;;17.31;98.93;101207.41;5055594;28;20348;-92
2021/07/09 04:09:32;;;;;;;12.77;9.60;;;;;;;17.32;99.09;101202.97;5070702;28;20074;-89
2021/07/09 04:12:08;;;;;;;11.38;10.40;;;;;;;17.33;98.92;101210.84;5071334;28;20067;-85
2021/07/09 04:14:36;;;;;;;15.60;10.93;;;;;;;17.36;99.03;101209.91;5061297;28;20079;-87
2021/07/09 04:17:07;;;;;;;10.65;9.55;;;;;;;17.35;98.87;101218.75;5004908;28;20050;-93
2021/07/09 04:19:34;;;;;;;11.32;10.25;;;;;;;17.39;98.84;101224.81;5014303;28;20059;-88
2021/07/09 04:22:00;;;;;;;10.10;9.20;;;;;;;17.43;98.62;101219.41;5022305;28;20129;-88
2021/07/09 04:24:27;;;;;;;14.43;11.75;;;;;;;17.45;98.47;101214.06;5022747;28;20053;-93
2021/07/09 04:29:41;;;;;;;11.70;9.65;;;;;;;17.48;98.63;101219.28;5024509;28;20030;-89
2021/07/09 04:32:30;;;;;;;12.40;11.18;;;;;;;17.47;98.63;101222.81;5032939;28;20051;-87
2021/07/09 04:35:21;;;;;;;14.40;11.73;;;;;;;17.44;98.75;101230.84;5027152;28;20045;-86
2021/07/09 04:37:48;;;;;;;15.45;13.30;;;;;;;17.42;98.55;101233.56;5022380;28;20045;-91
2021/07/09 04:40:22;;;;;;;16.35;12.38;;;;;;;17.41;98.77;101233.59;5001345;28;20038;-85
2021/07/09 04:42:53;;;;;;;17.80;14.98;;;;;;;17.41;99.06;101230.97;5012800;28;20045;-87
2021/07/09 04:45:27;;;;;;;14.75;13.25;;;;;;;17.42;98.76;101222.13;4994100;28;20051;-89
2021/07/09 04:47:53;;;;;;;14.98;12.77;;;;;;;17.47;98.76;101228.13;5028165;28;20041;-87
2021/07/09 04:50:24;;;;;;;12.98;11.52;;;;;;;17.51;98.63;101228.00;5014051;28;20133;-88
2021/07/09 04:52:54;;;;;;;14.88;12.18;;;;;;;17.52;98.25;101220.91;5031350;28;20047;-87
2021/07/09 04:55:25;;;;;;;14.18;11.82;;;;;;;17.50;98.24;101226.25;5028607;28;20041;-90
2021/07/09 04:57:56;;;;;;;13.90;11.60;;;;;;;17.50;98.08;101226.25;5053036;28;20026;-94
2021/07/09 05:00:57;;;;;;;12.88;10.95;;;;;;;17.50;98.37;101226.25;5049912;28;20037;-89
2021/07/09 05:03:23;;;;;;;11.88;10.73;;;;;;;17.52;98.21;101231.50;5030621;28;20481;-87
2021/07/09 05:05:57;;;;;;;12.95;11.55;;;;;;;17.54;98.19;101229.69;5042589;28;20048;-88
2021/07/09 05:08:30;;;;;;;20.05;12.43;;;;;;;17.52;97.88;101232.38;5030575;28;20095;-87
2021/07/09 05:11:05;;;;;;;13.80;11.10;;;;;;;17.52;97.89;101228.84;5011451;28;20499;-87
2021/07/09 05:13:38;;;;;;;27.20;11.65;;;;;;;17.53;97.76;101227.94;5015732;28;20079;-87
2021/07/09 05:16:18;;;;;;;13.07;11.45;;;;;;;17.52;98.01;101223.56;5031375;28;20037;-87
2021/07/09 05:18:55;;;;;;;17.30;12.15;;;;;;;17.52;97.74;101220.91;5021797;28;20043;-87
2021/07/09 05:21:25;;;;;;;13.23;10.68;;;;;;;17.53;97.42;101217.34;5034435;28;20117;-87
2021/07/09 05:23:55;;;;;;;11.38;10.07;;;;;;;17.52;97.57;101219.16;5032468;28;20456;-88
2021/07/09 05:26:26;;;;;;;14.68;12.00;;;;;;;17.51;97.93;101217.41;5006933;28;20041;-88
2021/07/09 05:29:17;;;;;;;13.63;11.75;;;;;;;17.51;97.98;101220.06;5020220;28;20052;-86
2021/07/09 05:31:44;;;;;;;17.00;10.63;;;;;;;17.52;97.58;101226.19;5016987;28;20041;-86
2021/07/09 05:34:15;;;;;;;11.73;10.55;;;;;;;17.53;97.50;101217.34;5033251;28;20055;-85
2021/07/09 05:36:43;;;;;;;13.40;12.00;;;;;;;17.54;97.43;101208.50;5038507;28;20045;-86
2021/07/09 05:39:43;;;;;;;17.75;12.70;;;;;;;17.55;97.38;101207.59;5021963;28;20049;-89
2021/07/09 05:42:12;;;;;;;15.30;10.90;;;;;;;17.56;97.31;101205.81;5029410;28;20050;-86
2021/07/09 05:44:42;;;;;;;15.55;12.65;;;;;;;17.59;97.28;101211.88;5046097;28;20071;-88
2021/07/09 05:47:15;;;;;;;12.23;10.02;;;;;;;17.62;96.92;101214.44;5021454;28;20479;-87
2021/07/09 05:49:57;;;;;;;15.10;13.50;;;;;;;17.60;97.09;101216.28;5037651;28;20041;-90
2021/07/09 05:52:36;;;;;;;14.38;11.55;;;;;;;17.63;96.72;101215.31;5056883;28;20065;-89
2021/07/09 05:55:06;;;;;;;12.98;11.68;;;;;;;17.64;96.61;101217.06;5035881;28;20041;-87
2021/07/09 05:57:35;;;;;;;12.93;11.45;;;;;;;17.66;96.41;101215.22;5052855;28;20072;-89
2021/07/09 06:00:13;;;;;;;13.20;10.75;;;;;;;17.66;96.49;101210.81;5034888;28;20056;-89
2021/07/09 06:02:46;;;;;;;14.82;11.27;;;;;;;17.68;96.83;101213.41;5052833;28;20054;-88
2021/07/09 06:05:13;;;;;;;13.38;10.95;;;;;;;17.67;96.60;101224.91;5054089;28;20037;-88
2021/07/09 06:07:42;;;;;;;13.68;10.82;;;;;;;17.66;97.19;101226.69;5063367;28;20047;-89
2021/07/09 06:10:15;;;;;;;13.10;11.13;;;;;;;17.69;96.91;101228.34;5063434;28;20048;-88
2021/07/09 06:12:54;;;;;;;11.52;10.32;;;;;;;17.75;96.96;101229.97;5062568;28;20535;-87
2021/07/09 06:15:24;;;;;;;12.18;10.90;;;;;;;17.78;96.83;101235.16;5039825;28;20037;-89
2021/07/09 06:17:53;;;;;;;13.93;11.82;;;;;;;17.80;96.93;101246.59;5036049;28;20052;-86
2021/07/09 06:20:24;;;;;;;13.80;12.40;;;;;;;17.76;96.80;101245.81;5049258;28;20531;-88
2021/07/09 06:23:09;;;;;;;;;;;;;;;;;;;;;
2021/07/09 06:25:37;;;;;;;15.60;13.48;;;;;;;17.69;97.61;101252.19;5051954;28;20069;-86
2021/07/09 06:28:08;;;;;;;16.48;12.82;;;;;;;17.66;97.50;101252.28;5033408;28;20037;-89
2021/07/09 06:31:33;;;;;;;14.10;11.93;;;;;;;17.62;97.92;101258.59;5032919;28;20514;-88
2021/07/09 06:34:30;;;;;;;;;;;;;;;;;;;;;
2021/07/09 06:37:37;;;;;;;16.00;13.15;;;;;;;17.58;98.10;101259.59;5050841;28;19909;-93
2021/07/09 06:40:21;;;;;;;;;;;;;;;;;;;;;
2021/07/09 06:42:55;;;;;;;16.20;12.05;;;;;;;17.54;98.37;101269.41;5052000;28;20043;-89
2021/07/09 06:48:25;;;;;;;13.23;11.48;;;;;;;17.50;98.72;101265.09;5032917;28;20049;-89
2021/07/09 06:50:56;;;;;;;12.52;11.25;;;;;;;17.48;99.01;101265.16;5034206;28;20045;-87
2021/07/09 06:53:24;;;;;;;12.65;11.43;;;;;;;17.42;99.03;101264.47;5052501;28;20087;-92
2021/07/09 06:55:56;;;;;;;13.50;12.20;;;;;;;17.35;99.66;101264.63;5070786;28;20044;-94
2021/07/09 06:58:46;;;;;;;15.18;12.98;;;;;;;17.30;99.97;101269.16;5065168;28;20141;-87
2021/07/09 07:01:24;;;;;;;13.77;12.27;;;;;;;17.28;100.00;101273.63;5056444;28;20059;-87
2021/07/09 07:03:54;;;;;;;13.63;11.02;;;;;;;17.25;100.00;101271.06;5058539;28;20550;-90
2021/07/09 07:06:38;;;;;;;12.07;10.63;;;;;;;17.24;100.00;101277.25;5039070;28;20041;-89
2021/07/09 07:21:39;;;;;;;13.23;10.05;;;;;;;17.39;100.00;101283.94;5054122;28;20082;-88
2021/07/09 07:28:23;;;;;;;14.82;13.32;;;;;;;17.50;100.00;101273.03;5052581;28;20048;-90
2021/07/09 07:30:54;;;;;;;15.88;12.32;;;;;;;17.52;100.00;101273.84;5047241;28;20083;-87
2021/07/09 07:33:26;;;;;;;15.25;12.48;;;;;;;17.55;99.83;101267.59;5021405;28;20394;-89
2021/07/09 07:35:53;;;;;;;13.60;12.30;;;;;;;17.55;99.70;101272.91;5055105;28;20048;-87
2021/07/09 07:38:24;;;;;;;15.68;12.30;;;;;;;17.56;99.36;101270.22;5022253;28;20434;-90
2021/07/09 07:40:55;;;;;;;12.93;11.52;;;;;;;17.62;99.04;101271.81;5049581;28;20055;-89
2021/07/09 07:43:26;;;;;;;10.80;9.70;;;;;;;17.66;99.24;101273.47;5054130;28;20491;-89
2021/07/09 07:45:54;;;;;;;12.98;11.68;;;;;;;17.74;98.94;101276.75;5053211;28;20128;-87
2021/07/09 07:48:36;;;;;;;11.20;10.10;;;;;;;17.82;98.63;101276.53;5050015;28;20042;-87
2021/07/09 07:51:07;;;;;;;14.25;12.65;;;;;;;17.91;98.15;101273.59;5048983;28;20462;-86
2021/07/09 07:53:36;;;;;;;15.38;12.70;;;;;;;18.03;97.62;101280.38;5036408;28;20036;-87
2021/07/09 07:56:06;;;;;;;15.85;13.30;;;;;;;18.18;97.17;101284.34;5048897;28;20041;-88
2021/07/09 07:58:35;;;;;;;13.60;12.20;;;;;;;18.33;96.35;101275.91;5049335;28;20049;-87
2021/07/09 08:01:01;;;;;;;16.05;11.95;;;;;;;18.46;95.79;101273.75;5050915;28;20285;-95
2021/07/09 08:03:34;;;;;;;10.70;9.55;;;;;;;18.58;95.49;101276.91;5088723;28;20064;-92
2021/07/09 08:06:14;;;;;;;12.60;11.38;;;;;;;18.60;95.02;101272.41;5061864;28;20067;-86
2021/07/09 08:13:44;;;;;;;13.00;11.68;;;;;;;18.48;95.08;101271.88;5028920;28;20054;-85
2021/07/09 08:16:14;;;;;;;13.88;11.80;;;;;;;18.40;95.39;101273.94;5015739;28;20099;-89
2021/07/09 08:18:41;;;;;;;12.30;11.05;;;;;;;18.39;95.78;101279.28;4998507;28;20065;-86
2021/07/09 08:21:09;;;;;;;14.13;11.65;;;;;;;18.38;95.70;101289.00;5012393;28;20049;-85
2021/07/09 08:23:37;;;;;;;15.48;12.43;;;;;;;18.34;96.14;101280.31;5013252;28;20037;-86
2021/07/09 08:26:04;;;;;;;13.68;12.30;;;;;;;18.29;96.38;101292.84;5013977;28;20698;-87
2021/07/09 08:28:35;;;;;;;14.95;12.68;;;;;;;18.13;97.53;101287.16;5025949;28;20053;-86
2021/07/09 08:31:06;;;;;;;16.70;14.35;;;;;;;17.95;97.59;101288.56;5028733;28;20171;-83
2021/07/09 08:33:35;;;;;;;14.45;12.52;;;;;;;17.81;98.54;101288.91;5028846;28;20069;-84
2021/07/09 08:36:06;;;;;;;16.48;13.73;;;;;;;17.71;99.31;101291.88;5011139;28;20040;-85
2021/07/09 08:38:35;;;;;;;17.20;14.73;;;;;;;17.62;99.84;101279.78;5011902;28;20048;-86
2021/07/09 08:41:03;;;;;;;16.85;14.38;;;;;;;17.57;100.00;101279.88;5010266;28;20054;-86
2021/07/09 08:43:30;;;;;;;16.00;14.00;;;;;;;17.57;100.00;101277.25;5004960;28;20179;-86
2021/07/09 08:45:57;;;;;;;14.63;13.23;;;;;;;17.59;100.00;101278.06;5012034;28;20481;-86
2021/07/09 08:48:37;;;;;;;16.52;14.77;;;;;;;17.64;99.81;101277.97;4998584;28;20145;-89
2021/07/09 08:51:05;;;;;;;16.38;14.63;;;;;;;17.73;100.00;101277.69;5012574;28;20048;-87
2021/07/09 08:53:36;;;;;;;18.27;15.07;;;;;;;17.83;99.49;101283.56;5013221;28;20056;-83
2021/07/09 08:56:06;;;;;;;15.85;14.20;;;;;;;17.92;99.16;101266.56;5000480;28;20042;-92
2021/07/09 08:58:35;;;;;;;16.05;14.15;;;;;;;18.04;98.51;101274.16;5018738;28;20045;-87
2021/07/09 09:01:05;;;;;;;15.43;13.85;;;;;;;18.14;98.14;101269.44;5016954;28;20046;-90
2021/07/09 09:03:32;;;;;;;14.60;12.73;;;;;;;18.23;97.94;101263.84;5000318;28;20042;-88
2021/07/09 09:06:01;;;;;;;16.73;14.82;;;;;;;18.35;97.71;101267.91;5026100;28;20140;-87
2021/07/09 09:08:34;;;;;;;17.02;14.65;;;;;;;18.43;97.32;101268.50;5010181;28;20048;-85
2021/07/09 09:11:04;;;;;;;17.00;14.73;;;;;;;18.51;96.47;101269.16;5013086;28;20080;-86
2021/07/09 09:13:37;;;;;;;17.15;15.35;;;;;;;18.65;96.76;101273.13;5012907;28;20045;-85
2021/07/09 09:16:09;;;;;;;14.32;12.88;;;;;;;18.75;96.19;101274.56;5008989;28;20041;-84
2021/07/09 09:18:54;;;;;;;46.40;15.25;;;;;;;18.86;95.84;101274.19;5027623;28;20042;-87
2021/07/09 09:21:26;;;;;;;14.75;13.25;;;;;;;18.92;95.72;101278.50;4995935;28;20141;-86
2021/07/09 09:23:55;;;;;;;16.10;13.68;;;;;;;18.92;95.76;101286.44;4993796;28;20401;-85
2021/07/09 09:26:50;;;;;;;14.90;13.43;;;;;;;18.92;96.24;101271.38;5008346;28;20052;-87
2021/07/09 09:29:36;;;;;;;15.73;13.75;;;;;;;18.92;95.66;101276.69;5026434;28;20551;-87
2021/07/09 09:32:07;;;;;;;15.32;13.88;;;;;;;18.89;95.60;101262.63;5024973;28;20121;-86
2021/07/09 09:34:59;;;;;;;;;;;;;;;;;;;;;
2021/07/09 09:37:28;;;;;;;13.90;12.60;;;;;;;18.93;95.11;101258.97;4990294;28;20384;-85
2021/07/09 09:39:55;;;;;;;14.93;12.43;;;;;;;19.01;95.34;101256.94;5009019;28;20132;-84
2021/07/09 09:42:25;;;;;;;12.23;11.15;;;;;;;19.12;94.69;101260.06;5008050;28;20103;-85
2021/07/09 09:45:04;;;;;;;12.27;10.98;;;;;;;19.25;93.95;101257.00;5008681;28;20049;-85
2021/07/09 09:48:02;;;;;;;12.63;11.43;;;;;;;19.34;93.92;101252.22;4994063;28;20112;-86
2021/07/09 09:50:28;;;;;;;13.25;11.85;;;;;;;19.43;93.27;101258.13;4999182;28;20048;-83
2021/07/09 09:52:56;;;;;;;11.75;10.55;;;;;;;19.46;92.85;101250.91;4995732;28;20450;-86
2021/07/09 09:55:34;;;;;;;13.25;10.88;;;;;;;19.54;92.53;101255.91;5009023;28;20045;-87
2021/07/09 09:58:18;;;;;;;12.25;11.07;;;;;;;19.62;92.20;101247.66;5005010;28;20041;-87
2021/07/09 10:00:51;;;;;;;12.82;11.52;;;;;;;19.68;92.17;101252.75;4985562;28;20055;-85
2021/07/09 10:03:19;;;;;;;11.57;10.53;;;;;;;19.74;91.66;101251.69;5006800;28;20051;-87
2021/07/09 10:05:48;;;;;;;11.15;10.07;;;;;;;19.76;91.27;101255.97;5008821;28;20045;-85
2021/07/09 10:08:17;;;;;;;9.77;8.93;;;;;;;19.77;91.38;101252.41;4991597;28;20134;-86
2021/07/09 10:10:45;;;;;;;13.15;9.65;;;;;;;19.81;90.98;101254.06;5007614;28;20043;-85
2021/07/09 10:13:22;;;;;;;10.73;9.73;;;;;;;19.82;91.44;101257.59;5008110;28;20083;-86
2021/07/09 10:15:55;;;;;;;9.48;8.68;;;;;;;19.91;91.29;101259.91;5011059;28;20555;-87
2021/07/09 10:18:26;;;;;;;9.77;8.75;;;;;;;19.98;90.90;101255.22;5009117;28;20065;-84
2021/07/09 10:20:55;;;;;;;9.98;9.02;;;;;;;20.06;90.45;101253.09;5010932;28;20050;-86
2021/07/09 10:23:24;;;;;;;10.68;9.52;;;;;;;20.05;90.13;101250.50;5007287;28;20076;-85
2021/07/09 10:25:54;;;;;;;11.07;9.30;;;;;;;20.08;90.16;101261.91;5007128;28;20073;-86
2021/07/09 10:28:23;;;;;;;9.80;8.80;;;;;;;20.09;90.15;101255.66;5006762;28;20088;-85
2021/07/09 10:30:54;;;;;;;10.05;9.15;;;;;;;20.12;89.50;101267.97;4997460;28;20049;-87
2021/07/09 10:33:37;;;;;;;10.77;9.63;;;;;;;20.10;90.07;101265.38;5009748;28;20414;-85
2021/07/09 10:36:32;;;;;;;10.60;9.65;;;;;;;20.07;90.30;101272.59;5008442;28;20034;-86
2021/07/09 10:38:58;;;;;;;8.65;7.85;;;;;;;19.98;90.61;101276.47;5024686;28;20057;-86
2021/07/09 10:41:26;;;;;;;8.52;7.82;;;;;;;19.92;91.02;101279.34;5008810;28;20073;-86
2021/07/09 10:44:17;;;;;;;10.23;9.25;;;;;;;19.87;91.25;101273.34;5020253;28;20120;-86
2021/07/09 10:46:45;;;;;;;10.07;9.18;;;;;;;19.82;91.23;101269.06;5009837;28;20045;-85
2021/07/09 10:49:16;;;;;;;10.90;9.65;;;;;;;19.83;91.28;101269.97;4991364;28;20073;-86
2021/07/09 10:51:57;;;;;;;9.10;8.20;;;;;;;19.89;91.26;101271.50;4992894;28;20049;-86
2021/07/09 10:54:36;;;;;;;7.93;7.25;;;;;;;19.93;91.01;101270.47;5004604;28;20531;-86
2021/07/09 10:57:19;;;;;;;10.50;9.65;;;;;;;19.90;90.64;101267.94;5010634;28;20037;-87
2021/07/09 11:00:34;;;;;;;11.98;10.55;;;;;;;19.89;91.11;101266.19;5012003;28;20064;-86
2021/07/09 11:03:13;;;;;;;;;;;;;;;;;;;;;
2021/07/09 11:05:44;;;;;;;12.32;11.18;;;;;;;19.92;91.40;101268.72;4998922;28;20058;-85
2021/07/09 11:08:50;;;;;;;11.93;10.70;;;;;;;19.86;91.10;101263.66;5023124;28;20116;-86
2021/07/09 11:11:34;;;;;;;12.07;10.93;;;;;;;19.85;91.41;101277.88;4982191;28;20046;-90
2021/07/09 11:14:16;;;;;;;9.75;8.93;;;;;;;19.75;91.89;101274.63;5026123;28;20132;-85
2021/07/09 11:16:58;;;;;;;11.15;10.23;;;;;;;19.71;92.40;101267.72;4992800;28;20106;-89
2021/07/09 11:19:35;;;;;;;10.25;9.30;;;;;;;19.72;92.65;101267.66;5010519;28;20130;-86
2021/07/09 11:22:14;;;;;;;13.77;12.43;;;;;;;19.72;92.57;101264.16;5012879;28;20084;-86
2021/07/09 11:24:56;;;;;;;13.23;11.85;;;;;;;19.64;93.06;101259.13;5011177;28;20054;-86
2021/07/09 11:27:37;;;;;;;13.07;11.90;;;;;;;19.59;93.38;101267.25;5008397;28;20042;-89
2021/07/09 11:30:05;;;;;;;13.77;12.40;;;;;;;19.49;93.45;101258.75;5007551;28;20069;-85
2021/07/09 11:32:33;;;;;;;14.82;13.32;;;;;;;19.46;93.87;101258.00;5008174;28;20676;-89
2021/07/09 11:35:02;;;;;;;13.18;11.98;;;;;;;19.43;94.00;101251.00;5008139;28;20518;-86
2021/07/09 11:37:49;;;;;;;15.88;14.48;;;;;;;19.45;93.98;101256.25;5010751;28;20045;-89
2021/07/09 11:40:19;;;;;;;14.85;13.38;;;;;;;19.51;93.95;101262.22;5008238;28;20488;-87
2021/07/09 11:42:46;;;;;;;13.38;12.00;;;;;;;19.64;93.97;101264.44;5014364;28;20494;-85
2021/07/09 11:45:19;;;;;;;16.90;15.13;;;;;;;19.70;93.86;101258.91;5013377;28;20091;-89
2021/07/09 11:47:45;;;;;;;14.63;13.23;;;;;;;19.76;93.70;101255.13;5013288;28;20049;-85
2021/07/09 11:50:24;;;;;;;16.13;13.00;;;;;;;19.82;93.32;101255.78;5011044;28;20045;-86
2021/07/09 11:52:58;;;;;;;13.20;11.90;;;;;;;19.91;92.73;101256.38;4996827;28;20085;-85
2021/07/09 11:55:28;;;;;;;13.30;12.10;;;;;;;19.98;92.61;101247.22;4978752;28;20048;-86
2021/07/09 11:57:55;;;;;;;11.13;10.23;;;;;;;20.05;92.16;101247.84;4992970;28;20052;-87
2021/07/09 12:00:48;;;;;;;14.50;13.10;;;;;;;20.08;92.48;101248.59;4998089;28;20100;-87
2021/07/09 12:03:16;;;;;;;15.67;14.17;;;;;;;20.11;92.05;101239.66;4995570;28;20143;-86
2021/07/09 12:05:44;;;;;;;12.65;11.57;;;;;;;20.16;91.53;101243.84;5007233;28;20064;-87
2021/07/09 12:08:15;;;;;;;13.95;12.65;;;;;;;20.27;91.40;101243.44;5026964;28;20132;-88
2021/07/09 12:10:45;;;;;;;14.63;12.45;;;;;;;20.38;90.91;101243.00;4993832;28;20139;-84
2021/07/09 12:13:35;;;;;;;12.70;11.38;;;;;;;20.46;90.63;101243.53;5010436;28;20495;-86
2021/07/09 12:16:06;;;;;;;15.30;13.70;;;;;;;20.55;90.35;101246.75;5011859;28;20133;-85
2021/07/09 12:18:36;;;;;;;12.43;11.20;;;;;;;20.57;90.06;101244.88;5025137;28;20042;-87
2021/07/09 12:21:08;;;;;;;13.75;12.45;;;;;;;20.62;90.01;101246.44;4994493;28;20069;-84
2021/07/09 12:23:35;;;;;;;14.20;12.25;;;;;;;20.65;89.47;101245.47;5012761;28;20136;-85
2021/07/09 12:26:10;;;;;;;13.35;11.95;;;;;;;20.65;89.36;101245.47;4999967;28;20081;-86
2021/07/09 12:28:44;;;;;;;10.63;9.73;;;;;;;20.57;89.65;101247.56;5011428;28;20128;-86
2021/07/09 12:31:45;;;;;;;14.93;11.88;;;;;;;20.53;89.58;101245.94;5016072;28;20050;-86
2021/07/09 12:34:27;;;;;;;11.75;10.55;;;;;;;20.52;89.63;101237.13;5012764;28;20143;-86
2021/07/09 12:37:07;;;;;;;11.55;10.35;;;;;;;20.52;89.49;101236.22;4997200;28;20045;-86
2021/07/09 12:39:37;;;;;;;15.02;12.48;;;;;;;20.57;89.30;101239.56;5015839;28;20049;-87
2021/07/09 12:45:05;;;;;;;11.20;10.05;;;;;;;20.62;89.57;101232.25;5012421;28;20339;-84
2021/07/09 12:47:49;;;;;;;10.50;9.20;;;;;;;20.64;88.94;101231.28;4996294;28;20057;-89